Time;durP1;ratioP1;P1;durP2;ratioP2;P2;SDS_P1;SDS_P2;PMS_P1;PMS_P2;Temp;Humidity;BMP_temperature;BMP_pressure;BME280_temperature;BME280_humidity;BME280_pressure;Samples;Min_cycle;Max_cycle;Signal;HPM_P1;HPM_P2
2022/07/09 00:00:07;;;;;;;2.05;1.50;;;16.10;99.90;;;;;;5049702;28;20384;-76
2022/07/09 00:02:34;;;;;;;3.45;1.60;;;16.10;99.90;;;;;;5050566;28;20048;-76
2022/07/09 00:05:00;;;;;;;2.10;1.30;;;16.30;99.90;;;;;;5059768;28;20048;-76
2022/07/09 00:07:26;;;;;;;2.47;1.10;;;16.30;99.90;;;;;;5049674;28;20040;-76
2022/07/09 00:09:52;;;;;;;2.08;1.00;;;16.20;99.90;;;;;;5033815;28;20048;-76
2022/07/09 00:12:18;;;;;;;0.60;0.60;;;16.30;99.90;;;;;;5034278;28;20094;-76
2022/07/09 00:14:44;;;;;;;1.13;0.60;;;16.30;99.90;;;;;;5049857;28;20064;-76
2022/07/09 00:17:10;;;;;;;1.27;0.80;;;16.20;99.90;;;;;;5033292;28;20036;-76
2022/07/09 00:19:36;;;;;;;0.65;0.55;;;16.30;99.90;;;;;;5047845;28;20114;-76
2022/07/09 00:22:02;;;;;;;2.40;1.10;;;16.40;99.90;;;;;;5049594;28;20383;-76
2022/07/09 00:24:27;;;;;;;;;;;16.00;99.90;;;;;;5058745;28;20048;-76
2022/07/09 00:26:53;;;;;;;2.75;1.02;;;16.10;99.90;;;;;;5050988;28;19920;-76
2022/07/09 00:29:19;;;;;;;3.13;1.40;;;16.10;99.90;;;;;;5048532;28;20113;-76
2022/07/09 00:31:45;;;;;;;2.25;1.17;;;16.20;99.90;;;;;;5054554;28;20202;-76
2022/07/09 00:34:12;;;;;;;1.50;1.00;;;16.10;99.90;;;;;;5047874;28;20041;-76
2022/07/09 00:36:38;;;;;;;2.08;1.20;;;16.30;99.90;;;;;;5051233;28;20505;-76
2022/07/09 00:39:04;;;;;;;1.40;0.90;;;16.40;99.90;;;;;;5048305;28;20115;-76
2022/07/09 00:41:29;;;;;;;2.03;1.15;;;16.20;99.90;;;;;;5031880;28;20119;-76
2022/07/09 00:43:55;;;;;;;0.93;0.70;;;16.40;99.90;;;;;;5031368;28;20067;-76
2022/07/09 00:46:21;;;;;;;1.58;0.90;;;16.10;99.90;;;;;;5049592;28;20036;-76
2022/07/09 00:48:47;;;;;;;3.30;1.02;;;16.10;99.90;;;;;;5048978;28;20048;-76
2022/07/09 00:51:14;;;;;;;1.92;0.77;;;16.40;99.90;;;;;;5056059;28;20048;-76
2022/07/09 00:53:40;;;;;;;1.75;0.88;;;16.10;99.90;;;;;;5048885;28;20074;-76
2022/07/09 00:56:07;;;;;;;0.70;0.70;;;16.40;99.90;;;;;;5033846;28;20036;-76
2022/07/09 00:58:34;;;;;;;1.00;0.77;;;16.40;99.90;;;;;;5035682;28;20039;-76
2022/07/09 01:01:01;;;;;;;0.90;0.73;;;16.10;99.90;;;;;;5049595;28;20742;-75
2022/07/09 01:03:27;;;;;;;1.17;0.85;;;16.40;99.90;;;;;;5030857;28;20048;-76
2022/07/09 01:05:55;;;;;;;1.80;1.10;;;16.40;99.90;;;;;;5048280;28;20040;-76
2022/07/09 01:08:21;;;;;;;1.80;1.10;;;16.10;99.90;;;;;;5032360;28;20048;-76
2022/07/09 01:10:50;;;;;;;2.05;1.10;;;16.10;99.90;;;;;;5049207;28;20642;-76
2022/07/09 01:13:15;;;;;;;1.70;1.20;;;16.20;99.90;;;;;;5064808;28;20120;-76
2022/07/09 01:15:41;;;;;;;1.98;1.08;;;16.20;99.90;;;;;;5031961;28;20522;-76
2022/07/09 01:18:11;;;;;;;3.03;1.40;;;16.30;99.90;;;;;;5032528;28;20040;-76
2022/07/09 01:20:36;;;;;;;3.42;1.48;;;16.30;99.90;;;;;;5046938;28;20037;-76
2022/07/09 01:23:02;;;;;;;2.38;1.15;;;16.20;99.90;;;;;;5032307;28;20032;-76
2022/07/09 01:25:39;;;;;;;1.67;1.00;;;16.10;99.90;;;;;;5048304;28;20391;-76
2022/07/09 01:28:05;;;;;;;;;;;16.10;99.90;;;;;;5047944;28;20079;-76
2022/07/09 01:30:33;;;;;;;5.53;2.00;;;16.40;99.90;;;;;;5048234;28;20235;-76
2022/07/09 01:32:58;;;;;;;3.90;2.30;;;16.20;99.90;;;;;;5049401;28;20036;-75
2022/07/09 01:35:24;;;;;;;3.95;1.75;;;16.30;99.90;;;;;;5028363;28;20028;-76
2022/07/09 01:37:51;;;;;;;3.60;2.10;;;16.40;99.90;;;;;;5044776;28;20041;-76
2022/07/09 01:40:16;;;;;;;5.22;2.38;;;16.10;99.90;;;;;;5048144;28;20242;-76
2022/07/09 01:42:42;;;;;;;3.35;1.63;;;16.40;99.90;;;;;;5049134;28;20526;-76
2022/07/09 01:45:09;;;;;;;2.63;1.23;;;16.10;99.90;;;;;;5048109;28;20048;-76
2022/07/09 01:47:34;;;;;;;3.47;1.80;;;16.10;99.90;;;;;;5048502;28;20036;-76
2022/07/09 01:50:00;;;;;;;3.85;2.08;;;16.40;99.90;;;;;;5045454;28;20128;-76
2022/07/09 01:52:26;;;;;;;2.90;1.40;;;16.10;99.90;;;;;;5048404;28;20123;-76
2022/07/09 01:54:52;;;;;;;2.78;1.50;;;16.20;99.90;;;;;;5030734;28;20086;-76
2022/07/09 01:57:17;;;;;;;3.65;1.70;;;16.00;99.90;;;;;;5047406;28;20317;-76
2022/07/09 01:59:43;;;;;;;3.20;1.50;;;16.00;99.90;;;;;;5030828;28;20389;-76
2022/07/09 02:02:09;;;;;;;3.70;1.88;;;16.20;99.90;;;;;;5047680;28;20048;-76
2022/07/09 02:04:34;;;;;;;6.18;2.58;;;16.40;99.90;;;;;;5048636;28;20048;-76
2022/07/09 02:07:00;;;;;;;4.38;2.55;;;16.10;99.90;;;;;;5047569;28;20040;-76
2022/07/09 02:09:26;;;;;;;5.28;2.22;;;15.90;99.90;;;;;;5048301;28;20057;-76
2022/07/09 02:11:51;;;;;;;3.65;1.85;;;16.20;99.90;;;;;;5047183;28;20043;-76
2022/07/09 02:14:17;;;;;;;3.08;1.23;;;16.20;99.90;;;;;;5031322;28;20036;-76
2022/07/09 02:16:43;;;;;;;3.03;1.55;;;16.10;99.90;;;;;;5048109;28;20387;-76
2022/07/09 02:19:08;;;;;;;3.15;1.35;;;15.80;99.90;;;;;;5048532;28;20503;-76
2022/07/09 02:21:34;;;;;;;3.08;1.75;;;16.20;99.90;;;;;;5046368;28;20040;-77
2022/07/09 02:24:00;;;;;;;3.92;1.60;;;16.20;99.90;;;;;;5047969;28;20109;-76
2022/07/09 02:26:27;;;;;;;4.97;2.20;;;16.20;99.90;;;;;;5032175;28;20506;-76
2022/07/09 02:28:54;;;;;;;3.97;2.20;;;15.80;99.90;;;;;;5051809;28;20166;-76
2022/07/09 02:31:20;;;;;;;1.92;1.50;;;15.80;99.90;;;;;;5051846;28;20051;-76
2022/07/09 02:33:46;;;;;;;4.82;1.90;;;16.20;99.90;;;;;;5052017;28;20040;-76
2022/07/09 02:36:11;;;;;;;3.45;1.90;;;16.00;99.90;;;;;;5053732;28;20040;-76
2022/07/09 02:38:37;;;;;;;3.80;2.15;;;15.80;99.90;;;;;;5049484;28;20601;-76
2022/07/09 02:41:03;;;;;;;4.32;2.00;;;16.30;99.90;;;;;;5032842;28;20115;-76
2022/07/09 02:43:29;;;;;;;3.45;1.88;;;15.90;99.90;;;;;;5036069;28;20048;-76
2022/07/09 02:45:55;;;;;;;4.88;2.30;;;15.90;99.90;;;;;;5055576;28;20486;-76
2022/07/09 02:48:22;;;;;;;5.30;2.38;;;15.90;99.90;;;;;;5057258;28;20056;-76
2022/07/09 02:50:49;;;;;;;3.30;2.20;;;15.90;99.90;;;;;;5054798;28;20115;-76
2022/07/09 02:53:15;;;;;;;2.40;1.58;;;16.00;99.90;;;;;;5054879;28;20051;-76
2022/07/09 02:55:40;;;;;;;4.45;2.30;;;16.30;99.90;;;;;;5044312;28;20045;-77
2022/07/09 02:58:06;;;;;;;4.63;2.15;;;15.90;99.90;;;;;;5054742;28;20040;-76
2022/07/09 03:00:32;;;;;;;2.72;1.63;;;16.20;99.90;;;;;;5054486;28;20079;-75
2022/07/09 03:02:58;;;;;;;2.75;1.70;;;16.00;99.90;;;;;;5039165;28;20059;-76
2022/07/09 03:05:23;;;;;;;2.25;1.27;;;15.80;99.90;;;;;;5064370;28;20048;-76
2022/07/09 03:07:49;;;;;;;1.67;1.10;;;16.20;99.90;;;;;;5054431;28;20044;-76
2022/07/09 03:10:15;;;;;;;4.70;1.80;;;16.20;99.90;;;;;;5055024;28;20044;-76
2022/07/09 03:12:41;;;;;;;2.03;1.00;;;16.20;99.90;;;;;;5050778;28;20053;-76
2022/07/09 03:15:09;;;;;;;2.58;1.27;;;15.70;99.90;;;;;;5045962;28;20044;-76
2022/07/09 03:17:35;;;;;;;2.55;1.40;;;15.70;99.90;;;;;;5051499;28;20051;-76
2022/07/09 03:20:01;;;;;;;2.80;1.15;;;15.70;99.90;;;;;;5048183;28;20036;-76
2022/07/09 03:22:27;;;;;;;1.40;1.05;;;16.10;99.90;;;;;;5038585;28;20044;-76
2022/07/09 03:24:52;;;;;;;2.67;1.40;;;15.80;99.90;;;;;;5055068;28;20055;-76
2022/07/09 03:27:18;;;;;;;2.72;1.50;;;16.20;99.90;;;;;;5073420;28;20129;-76
2022/07/09 03:29:44;;;;;;;1.30;1.08;;;15.90;99.90;;;;;;5052663;28;20094;-76
2022/07/09 03:32:09;;;;;;;1.10;0.90;;;15.90;99.90;;;;;;5055166;28;20040;-76
2022/07/09 03:34:35;;;;;;;3.80;1.30;;;15.70;99.90;;;;;;5037485;28;20131;-76
2022/07/09 03:37:01;;;;;;;2.38;1.30;;;15.80;99.90;;;;;;5036315;28;20143;-76
2022/07/09 03:39:26;;;;;;;2.83;1.70;;;15.90;99.90;;;;;;5034929;28;20372;-76
2022/07/09 03:41:52;;;;;;;2.15;1.52;;;15.90;99.90;;;;;;5052407;28;20149;-76
2022/07/09 03:44:18;;;;;;;5.20;1.92;;;16.00;99.90;;;;;;5037969;28;20140;-76
2022/07/09 03:46:44;;;;;;;4.32;1.85;;;15.80;99.90;;;;;;5060472;28;20402;-76
2022/07/09 03:49:10;;;;;;;3.42;1.52;;;15.60;99.90;;;;;;5053266;28;20103;-76
2022/07/09 03:51:36;;;;;;;2.03;1.10;;;16.00;99.90;;;;;;5054347;28;20052;-76
2022/07/09 03:54:02;;;;;;;2.00;1.08;;;16.00;99.90;;;;;;5054659;28;20355;-76
2022/07/09 03:56:28;;;;;;;2.95;1.60;;;15.70;99.90;;;;;;5036888;28;20043;-76
2022/07/09 03:58:54;;;;;;;4.35;2.10;;;15.90;99.90;;;;;;5053808;28;20044;-76
2022/07/09 04:01:19;;;;;;;3.42;1.80;;;16.00;99.90;;;;;;5044808;28;20060;-76
2022/07/09 04:03:45;;;;;;;3.03;1.85;;;15.70;99.90;;;;;;5062844;28;20053;-76
2022/07/09 04:06:12;;;;;;;2.33;1.40;;;15.70;99.90;;;;;;5052795;28;20038;-76
2022/07/09 04:08:37;;;;;;;2.15;1.38;;;16.10;99.90;;;;;;5052786;28;20529;-76
2022/07/09 04:11:03;;;;;;;2.72;1.65;;;15.70;99.90;;;;;;5053184;28;20068;-76
2022/07/09 04:13:29;;;;;;;2.88;1.70;;;15.80;99.90;;;;;;5052344;28;20403;-76
2022/07/09 04:15:54;;;;;;;3.28;2.03;;;16.20;99.90;;;;;;5052024;28;20113;-76
2022/07/09 04:18:20;;;;;;;2.88;1.60;;;15.70;99.90;;;;;;5053834;28;20091;-76
2022/07/09 04:20:46;;;;;;;2.22;1.40;;;16.20;99.90;;;;;;5053417;28;20044;-76
2022/07/09 04:23:11;;;;;;;1.65;1.00;;;16.20;99.90;;;;;;5053546;28;20135;-76
2022/07/09 04:25:37;;;;;;;0.80;0.80;;;16.10;99.90;;;;;;5036450;28;20052;-76
2022/07/09 04:28:05;;;;;;;1.85;1.20;;;16.10;99.90;;;;;;5053097;28;20052;-75
2022/07/09 04:30:30;;;;;;;1.35;1.05;;;16.00;99.90;;;;;;5052802;28;20049;-76
2022/07/09 04:32:56;;;;;;;2.22;1.20;;;16.10;99.90;;;;;;5053830;28;20048;-75
2022/07/09 04:35:22;;;;;;;2.08;1.10;;;15.90;99.90;;;;;;5041557;28;20040;-75
2022/07/09 04:37:48;;;;;;;2.38;1.50;;;15.90;99.90;;;;;;5062843;28;20105;-75
2022/07/09 04:40:13;;;;;;;3.78;1.70;;;15.80;99.90;;;;;;5057309;28;20044;-75
2022/07/09 04:42:39;;;;;;;3.85;2.10;;;15.90;99.90;;;;;;5054037;28;20094;-75
2022/07/09 04:45:05;;;;;;;3.50;1.67;;;16.10;99.90;;;;;;5064694;28;20048;-75
2022/07/09 04:47:31;;;;;;;;;;;16.00;99.90;;;;;;5052909;28;20112;-75
2022/07/09 04:49:56;;;;;;;2.67;1.52;;;16.20;99.90;;;;;;5052992;28;20007;-75
2022/07/09 04:52:26;;;;;;;2.67;1.83;;;15.90;99.90;;;;;;5051714;28;20056;-76
2022/07/09 04:54:52;;;;;;;2.20;1.20;;;16.00;99.90;;;;;;5037269;28;20528;-76
2022/07/09 04:57:18;;;;;;;3.58;2.10;;;16.00;99.90;;;;;;5053382;28;20052;-76
2022/07/09 04:59:44;;;;;;;5.78;2.33;;;16.00;99.90;;;;;;5053439;28;20044;-76
2022/07/09 05:02:09;;;;;;;3.05;1.80;;;16.20;99.90;;;;;;5052459;28;20113;-75
2022/07/09 05:04:35;;;;;;;2.00;1.40;;;16.30;99.90;;;;;;5029662;28;20491;-75
2022/07/09 05:07:01;;;;;;;2.30;1.60;;;16.10;99.90;;;;;;5047462;28;20121;-76
2022/07/09 05:09:27;;;;;;;4.57;2.03;;;16.20;99.90;;;;;;5031519;28;20484;-76
2022/07/09 05:11:54;;;;;;;3.45;1.85;;;16.20;99.90;;;;;;5046388;28;20047;-75
2022/07/09 05:14:19;;;;;;;5.68;2.50;;;16.50;99.90;;;;;;5035797;28;20116;-76
2022/07/09 05:16:45;;;;;;;4.57;2.08;;;16.30;99.90;;;;;;5049405;28;20115;-77
2022/07/09 05:19:11;;;;;;;4.90;1.98;;;16.40;99.90;;;;;;5045067;28;20040;-76
2022/07/09 05:21:41;;;;;;;3.90;1.92;;;16.60;99.90;;;;;;5051850;28;20040;-76
2022/07/09 05:24:07;;;;;;;2.80;1.80;;;16.70;99.90;;;;;;5051648;28;20113;-76
2022/07/09 05:26:33;;;;;;;4.68;2.47;;;16.80;99.90;;;;;;5050739;28;20048;-76
2022/07/09 05:28:59;;;;;;;3.92;2.13;;;16.40;99.90;;;;;;5034624;28;20417;-76
2022/07/09 05:31:25;;;;;;;4.60;2.47;;;16.50;99.90;;;;;;5051165;28;20056;-77
2022/07/09 05:33:51;;;;;;;4.90;2.30;;;16.80;99.90;;;;;;5055258;28;20040;-76
2022/07/09 05:36:17;;;;;;;5.50;2.17;;;16.60;99.90;;;;;;5055659;28;20068;-76
2022/07/09 05:38:43;;;;;;;4.25;2.08;;;16.60;99.90;;;;;;5052849;28;20038;-77
2022/07/09 05:41:10;;;;;;;2.92;1.48;;;16.60;99.90;;;;;;5057036;28;20478;-76
2022/07/09 05:43:36;;;;;;;2.90;1.90;;;17.00;99.90;;;;;;5065888;28;20040;-76
2022/07/09 05:46:02;;;;;;;4.60;1.90;;;16.70;99.90;;;;;;5058053;28;20511;-76
2022/07/09 05:48:28;;;;;;;5.25;2.30;;;17.10;99.90;;;;;;5032732;28;20055;-76
2022/07/09 05:50:54;;;;;;;4.47;2.28;;;17.00;99.90;;;;;;5051190;28;20044;-76
2022/07/09 05:53:20;;;;;;;3.67;1.98;;;16.90;99.90;;;;;;5048154;28;20067;-76
2022/07/09 05:55:46;;;;;;;;;;;16.70;99.90;;;;;;5050171;28;20039;-76
2022/07/09 05:58:12;;;;;;;3.13;2.00;;;17.00;99.90;;;;;;5049956;28;19920;-76
2022/07/09 06:00:38;;;;;;;2.42;1.30;;;17.00;99.90;;;;;;5050796;28;20394;-75
2022/07/09 06:03:03;;;;;;;5.20;2.17;;;16.80;99.90;;;;;;5049138;28;20036;-76
2022/07/09 06:05:29;;;;;;;2.35;1.70;;;17.00;99.90;;;;;;5055301;28;20483;-76
2022/07/09 06:07:55;;;;;;;3.55;1.55;;;17.00;99.90;;;;;;5036673;28;20407;-76
2022/07/09 06:10:21;;;;;;;4.18;1.83;;;16.90;99.90;;;;;;5048519;28;20052;-75
2022/07/09 06:12:47;;;;;;;;;;;17.20;99.90;;;;;;5054713;28;20044;-75
2022/07/09 06:15:13;;;;;;;4.47;2.03;;;17.10;99.90;;;;;;5034874;28;19916;-75
2022/07/09 06:17:39;;;;;;;3.67;1.90;;;17.10;99.90;;;;;;5054573;28;20857;-75
2022/07/09 06:20:05;;;;;;;4.32;1.85;;;17.30;99.90;;;;;;5037054;28;20419;-75
2022/07/09 06:22:31;;;;;;;4.25;1.58;;;17.20;99.90;;;;;;5051793;28;20470;-74
2022/07/09 06:24:57;;;;;;;2.00;1.30;;;17.10;99.90;;;;;;5046658;28;20129;-75
2022/07/09 06:27:23;;;;;;;4.05;1.50;;;17.50;99.90;;;;;;5047045;28;20032;-74
2022/07/09 06:29:48;;;;;;;4.15;1.55;;;17.40;99.90;;;;;;5051024;28;20250;-74
2022/07/09 06:32:14;;;;;;;4.20;1.90;;;17.30;99.90;;;;;;5034192;28;20039;-75
2022/07/09 06:34:39;;;;;;;;;;;17.30;99.90;;;;;;5050431;28;20483;-76
2022/07/09 06:37:05;;;;;;;5.95;1.90;;;17.50;99.90;;;;;;5049483;28;19916;-76
2022/07/09 06:39:46;;;;;;;2.22;1.23;;;17.30;99.90;;;;;;5051032;28;20048;-76
2022/07/09 06:42:13;;;;;;;3.25;1.85;;;17.40;99.90;;;;;;5050066;28;20041;-75
2022/07/09 06:44:39;;;;;;;3.88;1.40;;;17.50;99.90;;;;;;5052145;28;20040;-75
2022/07/09 06:47:06;;;;;;;2.92;1.60;;;17.50;99.90;;;;;;5050235;28;20657;-74
2022/07/09 06:49:32;;;;;;;3.90;1.70;;;17.50;99.90;;;;;;5047575;28;20048;-74
2022/07/09 06:51:58;;;;;;;3.78;1.75;;;17.60;99.90;;;;;;5049142;28;20555;-74
2022/07/09 06:54:25;;;;;;;3.80;1.80;;;17.60;99.90;;;;;;5049855;28;20189;-74
2022/07/09 06:56:50;;;;;;;3.47;1.27;;;17.40;99.90;;;;;;5039112;28;20041;-75
2022/07/09 06:59:18;;;;;;;;;;;17.80;99.90;;;;;;5041564;28;20069;-75
2022/07/09 07:01:44;;;;;;;2.88;1.25;;;17.70;99.90;;;;;;5032400;28;19920;-76
2022/07/09 07:04:14;;;;;;;3.47;1.52;;;17.80;99.90;;;;;;5059082;28;20142;-76
2022/07/09 07:06:45;;;;;;;4.18;1.60;;;17.80;99.90;;;;;;5069350;28;20475;-76
2022/07/09 07:09:11;;;;;;;3.15;1.15;;;17.70;99.90;;;;;;5069122;28;20101;-76
2022/07/09 07:11:36;;;;;;;;;;;17.90;99.90;;;;;;5051079;28;20599;-76
2022/07/09 07:14:02;;;;;;;3.97;1.35;;;17.80;99.90;;;;;;5054556;28;20038;-76
2022/07/09 07:16:28;;;;;;;4.43;1.42;;;17.80;99.90;;;;;;5054802;28;20737;-76
2022/07/09 07:18:54;;;;;;;;;;;17.80;99.90;;;;;;5038474;28;20136;-76
2022/07/09 07:21:20;;;;;;;4.43;1.27;;;17.90;99.90;;;;;;5055530;28;19923;-76
2022/07/09 07:23:45;;;;;;;;;;;17.80;99.90;;;;;;5031878;28;20124;-76
2022/07/09 07:26:11;;;;;;;4.72;1.40;;;17.90;99.90;;;;;;5053502;28;20016;-76
2022/07/09 07:28:37;;;;;;;;;;;17.90;99.90;;;;;;5070897;28;20066;-76
2022/07/09 07:31:02;;;;;;;1.52;1.00;;;18.00;99.90;;;;;;5058603;28;19971;-76
2022/07/09 07:33:28;;;;;;;2.72;1.15;;;18.20;99.90;;;;;;5054478;28;20037;-76
2022/07/09 07:35:54;;;;;;;4.18;1.15;;;18.10;99.90;;;;;;5038103;28;20109;-76
2022/07/09 07:38:19;;;;;;;;;;;18.20;99.90;;;;;;5050352;28;20498;-75
2022/07/09 07:40:45;;;;;;;4.25;1.38;;;18.20;99.90;;;;;;5067441;28;19925;-76
2022/07/09 07:43:11;;;;;;;1.52;1.00;;;18.30;99.90;;;;;;5053775;28;20560;-76
2022/07/09 07:45:37;;;;;;;;;;;18.50;99.90;;;;;;5051751;28;20040;-74
2022/07/09 07:48:03;;;;;;;2.65;1.20;;;18.40;99.90;;;;;;5051056;28;19916;-74
2022/07/09 07:50:29;;;;;;;2.95;1.40;;;18.30;99.90;;;;;;5051333;28;20078;-74
2022/07/09 07:52:54;;;;;;;4.40;1.10;;;18.40;99.90;;;;;;5047843;28;20044;-74
2022/07/09 07:55:20;;;;;;;;;;;18.40;99.90;;;;;;5034365;28;20044;-74
2022/07/09 07:57:46;;;;;;;3.38;1.20;;;18.30;99.90;;;;;;5052625;28;20423;-74
2022/07/09 08:00:11;;;;;;;;;;;18.40;99.90;;;;;;5044492;28;20093;-74
2022/07/09 08:02:37;;;;;;;2.22;1.10;;;18.40;99.90;;;;;;5051865;28;19920;-74
2022/07/09 08:05:03;;;;;;;;;;;18.50;99.90;;;;;;5054131;28;20052;-74
2022/07/09 08:07:29;;;;;;;4.50;1.40;;;18.60;99.90;;;;;;5070980;28;20047;-74
2022/07/09 08:09:54;;;;;;;;;;;18.60;99.90;;;;;;5053606;28;20048;-74
2022/07/09 08:12:20;;;;;;;3.08;0.98;;;18.70;99.90;;;;;;5036451;28;20432;-74
2022/07/09 08:14:45;;;;;;;;;;;18.80;99.90;;;;;;5032746;28;20338;-74
2022/07/09 08:17:11;;;;;;;6.10;1.40;;;19.00;99.90;;;;;;5037149;28;19920;-73
2022/07/09 08:19:37;;;;;;;;;;;18.90;99.90;;;;;;5037565;28;20407;-75
2022/07/09 08:22:03;;;;;;;6.55;1.40;;;18.80;99.90;;;;;;5052415;28;19975;-74
2022/07/09 08:24:28;;;;;;;5.57;1.50;;;18.60;99.90;;;;;;5043517;28;20118;-73
2022/07/09 08:26:54;;;;;;;;;;;18.70;99.90;;;;;;5053252;28;20442;-74
2022/07/09 08:29:20;;;;;;;5.13;1.20;;;18.50;99.90;;;;;;5054062;28;20434;-74
2022/07/09 08:31:47;;;;;;;;;;;18.50;99.90;;;;;;5050712;28;20072;-74
2022/07/09 08:34:13;;;;;;;3.55;1.35;;;18.50;99.90;;;;;;5034060;28;19925;-74
2022/07/09 08:36:38;;;;;;;;;;;18.70;99.90;;;;;;5035333;28;20047;-74
2022/07/09 08:39:04;;;;;;;5.65;1.63;;;18.90;99.90;;;;;;5037090;28;19920;-74
2022/07/09 08:41:30;;;;;;;;;;;19.00;99.90;;;;;;5051098;28;20505;-74
2022/07/09 08:43:55;;;;;;;3.38;1.20;;;19.40;99.90;;;;;;5065359;28;19916;-74
2022/07/09 08:46:21;;;;;;;;;;;19.60;99.90;;;;;;5045678;28;20139;-74
2022/07/09 08:48:47;;;;;;;2.83;1.10;;;19.60;99.90;;;;;;5053404;28;19920;-74
2022/07/09 08:51:15;;;;;;;;;;;19.80;99.90;;;;;;5065970;28;20541;-74
2022/07/09 08:53:43;;;;;;;5.20;1.00;;;20.00;99.90;;;;;;5062154;28;19972;-74
2022/07/09 08:56:09;;;;;;;2.40;0.95;;;20.10;99.90;;;;;;5041137;28;20040;-74
2022/07/09 08:58:35;;;;;;;4.30;1.10;;;20.30;99.90;;;;;;5054398;28;20045;-73
2022/07/09 09:01:01;;;;;;;4.88;1.30;;;20.20;99.90;;;;;;5038941;28;20052;-73
2022/07/09 09:03:26;;;;;;;;;;;20.00;99.90;;;;;;5045202;28;20044;-74
2022/07/09 09:06:09;;;;;;;4.88;1.20;;;19.90;99.90;;;;;;5049005;28;19917;-74
2022/07/09 09:08:37;;;;;;;2.95;1.30;;;19.80;99.90;;;;;;5041479;28;20043;-74
2022/07/09 09:11:36;;;;;;;5.30;1.50;;;19.50;99.90;;;;;;5038206;28;20097;-74
2022/07/09 09:14:02;;;;;;;2.70;0.80;;;19.70;99.90;;;;;;5050145;28;20475;-74
2022/07/09 09:16:28;;;;;;;3.63;1.10;;;20.10;99.90;;;;;;5037864;28;20032;-74
2022/07/09 09:18:54;;;;;;;3.85;1.10;;;20.40;99.90;;;;;;5053213;28;20044;-74
2022/07/09 09:21:21;;;;;;;;;;;20.40;99.90;;;;;;5047667;28;20402;-74
2022/07/09 09:23:47;;;;;;;;;;;20.30;99.90;;;;;;5043982;28;20054;-74
2022/07/09 09:26:17;;;;;;;4.28;1.17;;;19.90;99.90;;;;;;5049193;28;19923;-75
2022/07/09 09:28:47;;;;;;;4.80;1.15;;;19.90;99.90;;;;;;5046853;28;20036;-73
2022/07/09 09:31:25;;;;;;;2.55;1.08;;;20.00;99.90;;;;;;5032589;28;20490;-74
2022/07/09 09:33:57;;;;;;;3.38;1.00;;;19.60;99.90;;;;;;5052633;28;20041;-74
2022/07/09 09:36:37;;;;;;;2.78;0.77;;;19.80;99.90;;;;;;5045216;28;20119;-74
2022/07/09 09:39:16;;;;;;;3.67;1.05;;;19.60;99.90;;;;;;5052321;28;20040;-74
2022/07/09 09:41:45;;;;;;;4.15;1.02;;;19.40;99.90;;;;;;5051744;28;20036;-74
2022/07/09 09:44:19;;;;;;;2.40;1.00;;;19.30;99.90;;;;;;5039826;28;20044;-74
2022/07/09 09:46:45;;;;;;;5.00;1.20;;;19.20;99.90;;;;;;5052067;28;20041;-74
2022/07/09 09:49:14;;;;;;;2.80;1.15;;;19.40;99.90;;;;;;5038138;28;20519;-74
2022/07/09 09:51:49;;;;;;;4.43;1.27;;;19.40;99.90;;;;;;5023471;28;20053;-75
2022/07/09 09:54:16;;;;;;;4.13;1.02;;;19.60;99.90;;;;;;5045972;28;20059;-74
2022/07/09 09:56:43;;;;;;;4.38;1.13;;;19.60;99.90;;;;;;5050806;28;20072;-75
2022/07/09 09:59:10;;;;;;;2.53;1.08;;;19.90;99.90;;;;;;5052687;28;20090;-74
2022/07/09 10:01:37;;;;;;;3.80;1.10;;;19.90;99.90;;;;;;5049507;28;20053;-74
2022/07/09 10:04:03;;;;;;;2.40;1.00;;;19.90;99.90;;;;;;5051946;28;20056;-74
2022/07/09 10:06:29;;;;;;;5.05;1.10;;;20.00;99.90;;;;;;5051007;28;20059;-74
2022/07/09 10:08:55;;;;;;;4.40;1.25;;;20.00;99.90;;;;;;5052008;28;20480;-74
2022/07/09 10:11:21;;;;;;;;;;;19.80;99.90;;;;;;5036140;28;20047;-74
2022/07/09 10:13:55;;;;;;;3.70;1.13;;;20.00;99.90;;;;;;5050476;28;19924;-74
2022/07/09 10:16:38;;;;;;;4.50;1.33;;;19.80;99.90;;;;;;5042345;28;20267;-73
2022/07/09 10:19:04;;;;;;;4.38;1.20;;;19.90;99.90;;;;;;5033565;28;20047;-74
2022/07/09 10:21:34;;;;;;;4.18;1.05;;;19.30;99.90;;;;;;5049435;28;20032;-74
2022/07/09 10:24:00;;;;;;;3.22;1.00;;;19.10;99.90;;;;;;5033834;28;20047;-74
2022/07/09 10:26:42;;;;;;;;;;;18.90;99.90;;;;;;5046557;28;20688;-74
2022/07/09 10:29:25;;;;;;;6.05;1.48;;;18.60;99.90;;;;;;5046998;28;19920;-73
2022/07/09 10:31:55;;;;;;;4.97;1.40;;;17.90;99.90;;;;;;5066839;28;20056;-73
2022/07/09 10:34:41;;;;;;;5.65;1.50;;;17.40;99.90;;;;;;5051644;28;20078;-74
2022/07/09 10:37:07;;;;;;;4.60;1.40;;;17.20;99.90;;;;;;5036260;28;20028;-73
2022/07/09 10:39:33;;;;;;;;;;;17.40;99.90;;;;;;5051613;28;20078;-73
2022/07/09 10:42:19;;;;;;;6.13;1.40;;;17.50;99.90;;;;;;5049225;28;19924;-74
2022/07/09 10:44:46;;;;;;;3.85;1.10;;;17.50;99.90;;;;;;5049867;28;20040;-74
2022/07/09 10:47:12;;;;;;;4.85;1.35;;;17.80;99.90;;;;;;5053047;28;20048;-74
2022/07/09 10:49:38;;;;;;;4.97;1.40;;;17.90;99.90;;;;;;5056305;28;20115;-74
2022/07/09 10:52:04;;;;;;;;;;;18.00;99.90;;;;;;5039804;28;20115;-74
2022/07/09 10:54:30;;;;;;;6.05;1.55;;;18.00;99.90;;;;;;5055616;28;19934;-74
2022/07/09 10:56:56;;;;;;;3.95;1.27;;;18.10;99.90;;;;;;5038914;28;20071;-74
2022/07/09 10:59:23;;;;;;;4.78;1.10;;;18.20;99.90;;;;;;5055083;28;20079;-74
2022/07/09 11:01:50;;;;;;;3.30;1.10;;;18.10;99.90;;;;;;5055759;28;20057;-74
2022/07/09 11:04:30;;;;;;;4.30;1.00;;;18.30;99.90;;;;;;5054652;28;20079;-74
2022/07/09 11:06:56;;;;;;;2.58;1.10;;;18.50;99.90;;;;;;5071610;28;20083;-74
2022/07/09 11:09:22;;;;;;;3.08;0.80;;;18.80;99.90;;;;;;5051308;28;20061;-75
2022/07/09 11:11:48;;;;;;;3.58;0.80;;;19.10;99.90;;;;;;5053593;28;20475;-74
2022/07/09 11:14:14;;;;;;;;;;;19.20;99.90;;;;;;5033643;28;20844;-74
2022/07/09 11:16:40;;;;;;;2.05;0.73;;;19.30;99.90;;;;;;5050921;28;20041;-74
2022/07/09 11:19:15;;;;;;;;;;;19.50;99.90;;;;;;5038720;28;20048;-75
2022/07/09 11:21:41;;;;;;;2.80;1.00;;;19.60;99.90;;;;;;5063966;28;19920;-74
2022/07/09 11:24:18;;;;;;;;;;;19.60;99.90;;;;;;5054404;28;20044;-74
2022/07/09 11:26:44;;;;;;;1.85;0.60;;;19.50;99.90;;;;;;5052486;28;19920;-74
2022/07/09 11:29:10;;;;;;;;;;;19.60;99.90;;;;;;5033698;28;20043;-74
2022/07/09 11:31:36;;;;;;;4.60;1.00;;;19.60;99.90;;;;;;5052706;28;20344;-74
2022/07/09 11:34:12;;;;;;;3.45;0.90;;;19.30;99.90;;;;;;5070292;28;20505;-75
2022/07/09 11:36:46;;;;;;;3.58;0.90;;;19.40;99.90;;;;;;5048981;28;20032;-75
2022/07/09 11:39:50;;;;;;;3.50;1.13;;;19.60;99.90;;;;;;5056725;28;20048;-74
2022/07/09 11:42:18;;;;;;;2.60;0.77;;;20.00;99.90;;;;;;5043003;28;20053;-74
2022/07/09 11:44:53;;;;;;;2.90;0.80;;;19.90;99.90;;;;;;5054885;28;20044;-74
2022/07/09 11:47:22;;;;;;;1.95;0.60;;;20.00;99.90;;;;;;5050734;28;20052;-75
2022/07/09 11:49:50;;;;;;;1.83;0.77;;;20.30;99.90;;;;;;5053541;28;20126;-77
2022/07/09 11:52:21;;;;;;;4.80;1.00;;;20.30;99.90;;;;;;5050098;28;20044;-75
2022/07/09 11:55:00;;;;;;;3.03;0.88;;;20.40;99.90;;;;;;5054144;28;20041;-74
2022/07/09 11:57:26;;;;;;;3.35;0.75;;;20.20;99.90;;;;;;5052081;28;20094;-75
2022/07/09 11:59:52;;;;;;;3.35;0.85;;;20.10;99.90;;;;;;5039916;28;20046;-75
2022/07/09 12:02:34;;;;;;;;;;;20.10;99.90;;;;;;5055119;28;20048;-74
2022/07/09 12:05:03;;;;;;;4.63;0.90;;;20.00;99.90;;;;;;5050705;28;19917;-75
2022/07/09 12:07:29;;;;;;;2.70;0.70;;;20.30;99.90;;;;;;5047098;28;20052;-76
2022/07/09 12:10:01;;;;;;;;;;;20.10;99.90;;;;;;5054597;28;20048;-76
2022/07/09 12:12:27;;;;;;;1.95;0.80;;;20.50;99.90;;;;;;5053678;28;19939;-74
2022/07/09 12:14:54;;;;;;;1.77;0.60;;;20.70;99.90;;;;;;5054241;28;20157;-75
2022/07/09 12:17:26;;;;;;;1.50;0.60;;;20.70;99.90;;;;;;5053216;28;20105;-74
2022/07/09 12:19:53;;;;;;;3.28;0.90;;;20.50;99.90;;;;;;5054532;28;20431;-74
2022/07/09 12:22:19;;;;;;;3.70;0.77;;;20.20;99.90;;;;;;5038414;28;20060;-74
2022/07/09 12:24:45;;;;;;;2.53;0.80;;;20.20;99.90;;;;;;5054082;28;20127;-74
2022/07/09 12:27:11;;;;;;;3.85;0.80;;;20.10;99.90;;;;;;5054379;28;20127;-74
2022/07/09 12:29:37;;;;;;;;;;;20.20;99.90;;;;;;5041212;28;20637;-74
2022/07/09 12:32:03;;;;;;;3.08;0.90;;;20.40;99.90;;;;;;5053676;28;19923;-74
2022/07/09 12:34:29;;;;;;;2.72;0.85;;;20.20;99.90;;;;;;5042743;28;20047;-74
2022/07/09 12:36:54;;;;;;;;;;;20.10;99.90;;;;;;5039382;28;20045;-74
2022/07/09 12:39:20;;;;;;;3.05;0.90;;;20.20;99.90;;;;;;5043418;28;19921;-74
2022/07/09 12:41:46;;;;;;;2.65;0.80;;;20.40;99.90;;;;;;5053728;28;20106;-74
2022/07/09 12:44:12;;;;;;;1.83;0.70;;;20.60;99.90;;;;;;5052511;28;20049;-75
2022/07/09 12:46:38;;;;;;;5.00;0.90;;;20.70;99.90;;;;;;5037246;28;20054;-74
2022/07/09 12:49:04;;;;;;;3.03;0.93;;;20.20;99.90;;;;;;5053508;28;20093;-74
2022/07/09 12:51:30;;;;;;;;;;;19.90;99.90;;;;;;5054102;28;20041;-74
2022/07/09 12:53:55;;;;;;;2.90;0.90;;;20.00;99.90;;;;;;5051935;28;19920;-75
2022/07/09 12:56:21;;;;;;;;;;;20.10;99.90;;;;;;5052038;28;20104;-75